Sheridan, Montana
Current Conditions -  °F | °C
As of 8:53 AM on Wednesday 22 Oct 2014 (Local Time) from KDLN Reporting Station
Clear Clear  
Wind Chill: 26°   Ceiling: Unl
Heat Index: 32°   Visibility: 10mi
Dew Point: 27°   Wind: 6mph
Humidity: 82%   Direction: 160°SSE
Pressure: 30.11"   Gusts: NA
Location:  45.46°N, 112.2°W
Report Text: KDLN 221453Z AUTO 16005KT 10SM CLR 00/M03 A3011 RMK AO2 SLP212 60000 T00001028 51005
Loading
Personal Weather Stations






























Interactive Weather Map
Tropical Storm Tracking
New forecast layout! Learn more

10-Day Weather Forecast

Advertisements
Track Severe Weather on mobile